Time;durP1;ratioP1;P1;durP2;ratioP2;P2;SDS_P1;SDS_P2;PMS_P1;PMS_P2;Temp;Humidity;BMP_temperature;BMP_pressure;BME280_temperature;BME280_humidity;BME280_pressure;Samples;Min_cycle;Max_cycle;Signal;HPM_P1;HPM_P2
2021/08/05 00:03:56;;;;;;;;;;;13.80;99.90;;;12.90;100.00;95286.50;10276619;28;2337;-78
2021/08/05 00:08:59;;;;;;;;;;;13.90;99.90;;;12.91;100.00;95279.22;10274202;28;2571;-75
2021/08/05 00:14:02;;;;;;;;;;;13.90;99.90;;;12.94;100.00;95282.13;10268809;28;2401;-76
2021/08/05 00:19:05;;;;;;;;;;;13.90;99.90;;;12.99;100.00;95278.53;10265680;28;2341;-77
2021/08/05 00:24:07;;;;;;;;;;;13.90;99.90;;;12.96;100.00;95279.91;10262037;28;2301;-78
2021/08/05 00:29:10;;;;;;;;;;;13.90;99.90;;;12.97;100.00;95280.72;10271303;28;2375;-77
2021/08/05 00:34:13;;;;;;;;;;;13.90;99.90;;;13.04;100.00;95278.44;10270765;28;2371;-78
2021/08/05 00:39:16;;;;;;;;;;;14.00;99.90;;;13.10;100.00;95274.50;10278745;28;2701;-78
2021/08/05 00:44:18;;;;;;;;;;;14.00;99.90;;;13.13;100.00;95275.81;10289910;28;2348;-77
2021/08/05 00:49:21;;;;;;;;;;;14.10;99.90;;;13.06;100.00;95272.75;10282075;28;2588;-76
2021/08/05 00:54:24;;;;;;;;;;;14.10;99.90;;;13.13;100.00;95276.63;10276104;28;2746;-77
2021/08/05 00:59:26;;;;;;;;;;;14.00;99.90;;;13.10;100.00;95268.31;10272906;28;2750;-75
2021/08/05 01:04:29;;;;;;;;;;;14.10;99.90;;;13.12;100.00;95271.53;10270544;28;2416;-76
2021/08/05 01:09:32;;;;;;;;;;;14.00;99.90;;;13.15;100.00;95265.53;10277195;28;2558;-76
2021/08/05 01:14:39;;;;;;;;;;;14.10;99.90;;;13.23;100.00;95262.13;10277857;28;2262;-78
2021/08/05 01:19:43;;;;;;;;;;;14.10;99.90;;;13.23;100.00;95257.56;10268060;28;2368;-77
2021/08/05 01:24:46;;;;;;;;;;;14.20;99.90;;;13.14;100.00;95263.94;10293039;28;2285;-77
2021/08/05 01:29:48;;;;;;;;;;;14.10;99.90;;;13.13;100.00;95256.94;10274234;28;2301;-77
2021/08/05 01:34:51;;;;;;;;;;;14.10;99.90;;;13.12;100.00;95260.75;10281249;28;2420;-76
2021/08/05 01:39:54;;;;;;;;;;;14.10;99.90;;;13.24;100.00;95256.44;10268446;28;2365;-76
2021/08/05 01:44:56;;;;;;;;;;;14.10;99.90;;;13.21;100.00;95258.94;10277653;28;2265;-75
2021/08/05 01:49:59;;;;;;;;;;;14.10;99.90;;;13.12;100.00;95252.66;10266956;28;2317;-77
2021/08/05 01:55:02;;;;;;;;;;;14.10;99.90;;;13.06;100.00;95251.16;10269937;28;2396;-77
2021/08/05 02:00:04;;;;;;;;;;;14.00;99.90;;;12.90;100.00;95242.56;10265887;28;2358;-77
2021/08/05 02:05:07;;;;;;;;;;;13.90;99.90;;;12.76;100.00;95247.97;10276047;28;2149;-78
2021/08/05 02:10:10;;;;;;;;;;;13.80;99.90;;;12.77;100.00;95248.75;10296370;28;2690;-76
2021/08/05 02:15:12;;;;;;;;;;;13.70;99.90;;;12.58;100.00;95252.34;10279042;28;2300;-77
2021/08/05 02:20:15;;;;;;;;;;;13.70;99.90;;;12.70;100.00;95251.84;10291764;28;2276;-76
2021/08/05 02:25:18;;;;;;;;;;;13.60;99.90;;;12.77;100.00;95246.06;10288896;28;2575;-76
2021/08/05 02:30:20;;;;;;;;;;;13.70;99.90;;;12.73;100.00;95253.97;10289468;28;2737;-77
2021/08/05 02:35:23;;;;;;;;;;;13.70;99.90;;;12.72;100.00;95244.25;10274869;28;2454;-77
2021/08/05 02:40:26;;;;;;;;;;;13.60;99.90;;;12.68;100.00;95248.66;10279924;28;2794;-76
2021/08/05 02:45:28;;;;;;;;;;;13.60;99.90;;;12.63;100.00;95243.38;10272436;28;2750;-77
2021/08/05 02:50:31;;;;;;;;;;;13.60;99.90;;;12.56;100.00;95241.06;10268601;28;2718;-77
2021/08/05 02:55:34;;;;;;;;;;;13.60;99.90;;;12.56;100.00;95234.88;10282084;28;2538;-77
2021/08/05 03:00:36;;;;;;;;;;;13.50;99.90;;;12.58;100.00;95229.97;10286858;28;2412;-76
2021/08/05 03:05:39;;;;;;;;;;;13.50;99.90;;;12.61;100.00;95230.19;10283110;28;2503;-78
2021/08/05 03:10:42;;;;;;;;;;;13.50;99.90;;;12.66;100.00;95235.50;10270815;28;2562;-77
2021/08/05 03:15:45;;;;;;;;;;;13.60;99.90;;;12.76;100.00;95234.47;10285672;28;2334;-77
2021/08/05 03:20:47;;;;;;;;;;;13.60;99.90;;;12.78;100.00;95234.97;10288738;28;2524;-76
2021/08/05 03:25:50;;;;;;;;;;;13.70;99.90;;;12.75;100.00;95240.97;10278808;28;2457;-75
2021/08/05 03:30:53;;;;;;;;;;;13.70;99.90;;;12.73;100.00;95237.00;10276658;28;2517;-74
2021/08/05 03:35:56;;;;;;;;;;;13.70;99.90;;;12.77;100.00;95235.28;10283304;28;2432;-76
2021/08/05 03:41:01;;;;;;;;;;;13.70;99.90;;;12.75;100.00;95235.56;10269613;28;2548;-77
2021/08/05 03:46:03;;;;;;;;;;;13.70;99.90;;;12.85;100.00;95230.00;10273079;28;2639;-77
2021/08/05 03:51:07;;;;;;;;;;;13.70;99.90;;;12.84;100.00;95239.16;10295930;28;2542;-78
2021/08/05 03:56:10;;;;;;;;;;;13.80;99.90;;;12.84;100.00;95236.47;10262919;28;2472;-78
2021/08/05 04:01:13;;;;;;;;;;;13.80;99.90;;;12.88;100.00;95234.78;10273808;28;2474;-77
2021/08/05 04:06:16;;;;;;;;;;;13.80;99.90;;;12.77;100.00;95227.19;10268839;28;2554;-77
2021/08/05 04:11:18;;;;;;;;;;;13.70;99.90;;;12.76;100.00;95230.97;10271725;28;2110;-76
2021/08/05 04:16:21;;;;;;;;;;;13.70;99.90;;;12.82;100.00;95227.09;10278714;28;2731;-77
2021/08/05 04:21:24;;;;;;;;;;;13.70;99.90;;;12.83;100.00;95221.38;10289922;28;2538;-77
2021/08/05 04:26:27;;;;;;;;;;;13.80;99.90;;;12.82;100.00;95221.69;10278424;28;2547;-77
2021/08/05 04:31:29;;;;;;;;;;;13.80;99.90;;;12.82;100.00;95227.88;10272537;28;2408;-78
2021/08/05 04:36:32;;;;;;;;;;;13.80;99.90;;;12.80;100.00;95227.41;10290116;28;2497;-76
2021/08/05 04:41:35;;;;;;;;;;;13.80;99.90;;;12.87;100.00;95221.59;10268626;28;2559;-77
2021/08/05 04:46:38;;;;;;;;;;;13.80;99.90;;;12.83;100.00;95221.38;10278123;28;2833;-76
2021/08/05 04:51:41;;;;;;;;;;;13.80;99.90;;;12.87;100.00;95222.38;10263965;28;2645;-77
2021/08/05 04:56:43;;;;;;;;;;;13.80;99.90;;;12.87;100.00;95222.38;10269765;28;2637;-76
2021/08/05 05:01:47;;;;;;;;;;;13.80;99.90;;;13.03;100.00;95216.66;10270305;28;2818;-77
2021/08/05 05:06:50;;;;;;;;;;;13.90;99.90;;;13.10;100.00;95219.75;10278710;28;2579;-77
2021/08/05 05:11:53;;;;;;;;;;;13.90;99.90;;;13.16;100.00;95215.84;10286130;28;2535;-77
2021/08/05 05:16:56;;;;;;;;;;;14.00;99.90;;;13.11;100.00;95218.66;10274776;28;2483;-76
2021/08/05 05:21:59;;;;;;;;;;;14.00;99.90;;;13.17;100.00;95220.16;10271523;28;2449;-77
2021/08/05 05:27:02;;;;;;;;;;;14.00;99.90;;;13.35;100.00;95215.72;10279140;28;2522;-76
2021/08/05 05:32:05;;;;;;;;;;;14.10;99.90;;;13.24;100.00;95220.56;10270970;28;2546;-76
2021/08/05 05:37:07;;;;;;;;;;;14.10;99.90;;;13.11;100.00;95227.56;10281836;28;2510;-78
2021/08/05 05:42:10;;;;;;;;;;;14.10;99.90;;;13.20;100.00;95227.63;10289453;28;2409;-78
2021/08/05 05:47:13;;;;;;;;;;;14.10;99.90;;;13.25;100.00;95216.75;10286298;28;2496;-78
2021/08/05 05:52:15;;;;;;;;;;;14.10;99.90;;;13.39;100.00;95225.63;10286269;28;2515;-77
2021/08/05 05:57:18;;;;;;;;;;;14.20;99.90;;;13.52;100.00;95227.47;10280830;28;2638;-76
2021/08/05 06:02:21;;;;;;;;;;;14.40;99.90;;;13.55;100.00;95231.47;10273740;28;2438;-78
2021/08/05 06:07:24;;;;;;;;;;;14.40;99.90;;;13.53;100.00;95239.06;10289601;28;2610;-80
2021/08/05 06:12:27;;;;;;;;;;;14.50;99.90;;;13.64;100.00;95248.53;10290307;28;2513;-80
2021/08/05 06:17:30;;;;;;;;;;;14.40;99.90;;;13.50;100.00;95235.09;10283932;28;2648;-79
2021/08/05 06:22:32;;;;;;;;;;;14.50;99.90;;;13.44;100.00;95240.91;10306392;28;2488;-79
2021/08/05 06:27:35;;;;;;;;;;;14.40;99.90;;;13.42;100.00;95243.09;10295259;28;2660;-78
2021/08/05 06:32:38;;;;;;;;;;;14.40;99.90;;;13.21;100.00;95248.16;10299319;28;2525;-77
2021/08/05 06:37:41;;;;;;;;;;;14.30;99.90;;;13.36;100.00;95250.53;10301882;28;2486;-80
2021/08/05 06:42:44;;;;;;;;;;;14.30;99.90;;;13.54;100.00;95246.06;10315480;28;2213;-79
2021/08/05 06:47:49;;;;;;;;;;;14.40;99.90;;;13.69;100.00;95245.72;10306293;28;2632;-79
2021/08/05 06:52:53;;;;;;;;;;;14.50;99.90;;;13.80;100.00;95243.56;10294996;28;1860;-79
2021/08/05 06:57:56;;;;;;;;;;;14.70;99.90;;;14.01;100.00;95249.31;10298090;28;2586;-79
2021/08/05 07:02:58;;;;;;;;;;;14.80;99.90;;;14.04;100.00;95248.66;10304595;28;2665;-78
2021/08/05 07:08:01;;;;;;;;;;;14.90;99.90;;;14.42;100.00;95243.66;10292192;28;2475;-80
2021/08/05 07:13:05;;;;;;;;;;;15.10;99.90;;;14.20;100.00;95247.19;10302520;28;2554;-80
2021/08/05 07:18:07;;;;;;;;;;;15.10;99.90;;;14.62;100.00;95246.94;10308048;28;2020;-80
2021/08/05 07:23:10;;;;;;;;;;;15.20;99.90;;;14.68;100.00;95243.00;10308060;28;2489;-80
2021/08/05 07:28:13;;;;;;;;;;;15.40;99.90;;;15.31;100.00;95245.25;10287955;28;2455;-80
2021/08/05 07:33:16;;;;;;;;;;;15.80;99.90;;;15.05;100.00;95242.50;10296550;28;2091;-78
2021/08/05 07:38:18;;;;;;;;;;;16.00;99.90;;;15.26;100.00;95250.03;10302952;28;2548;-79
2021/08/05 07:43:21;;;;;;;;;;;15.90;99.90;;;15.19;100.00;95241.56;10303910;28;2492;-78
2021/08/05 07:48:24;;;;;;;;;;;16.00;99.90;;;15.33;100.00;95250.34;10307046;28;2451;-82
2021/08/05 07:53:26;;;;;;;;;;;16.00;99.90;;;15.21;100.00;95244.78;10315036;28;2550;-80
2021/08/05 07:58:29;;;;;;;;;;;16.20;99.90;;;15.33;100.00;95240.34;10304475;28;2526;-81
2021/08/05 08:03:32;;;;;;;;;;;16.20;99.90;;;15.36;100.00;95250.53;10323909;28;2447;-80
2021/08/05 08:08:35;;;;;;;;;;;16.10;99.90;;;15.33;100.00;95250.34;10308553;28;2820;-82
2021/08/05 08:13:38;;;;;;;;;;;16.20;99.90;;;15.55;100.00;95244.81;10324385;28;2542;-81
2021/08/05 08:18:41;;;;;;;;;;;16.30;99.90;;;15.56;100.00;95251.81;10322588;28;2488;-80
2021/08/05 08:23:43;;;;;;;;;;;16.30;99.90;;;15.73;100.00;95258.41;10327766;28;2407;-80
2021/08/05 08:28:46;;;;;;;;;;;16.40;99.90;;;15.93;99.86;95257.75;10306687;28;2483;-80
2021/08/05 08:33:49;;;;;;;;;;;16.60;99.90;;;16.04;97.41;95258.25;10313563;28;2438;-82
2021/08/05 08:38:52;;;;;;;;;;;16.70;99.90;;;16.51;97.07;95261.00;10295896;28;2403;-82
2021/08/05 08:43:54;;;;;;;;;;;17.00;99.90;;;16.26;94.03;95258.03;10297396;28;2468;-82
2021/08/05 08:48:57;;;;;;;;;;;17.30;99.90;;;17.09;91.99;95257.63;10294276;28;2538;-81
2021/08/05 08:54:00;;;;;;;;;;;17.50;99.90;;;17.14;91.65;95262.09;10311064;28;2675;-81
2021/08/05 08:59:03;;;;;;;;;;;17.80;99.90;;;17.49;89.88;95254.50;10320016;28;2479;-82
2021/08/05 09:04:05;;;;;;;;;;;18.00;99.90;;;17.85;86.69;95258.59;10308887;28;2544;-81
2021/08/05 09:09:08;;;;;;;;;;;18.20;99.90;;;18.32;84.28;95261.84;10324154;28;2586;-81
2021/08/05 09:14:12;;;;;;;;;;;18.80;99.90;;;18.95;79.45;95250.78;10311338;28;2578;-81
2021/08/05 09:19:16;;;;;;;;;;;19.30;99.90;;;18.29;84.35;95255.19;10304916;28;2207;-82
2021/08/05 09:24:20;;;;;;;;;;;19.30;99.90;;;18.82;80.17;95245.34;10333860;28;2398;-83
2021/08/05 09:29:23;;;;;;;;;;;19.40;99.90;;;18.96;80.94;95241.50;10306667;28;2345;-80
2021/08/05 09:34:25;;;;;;;;;;;19.60;99.90;;;19.54;75.79;95237.50;10298530;28;2511;-81
2021/08/05 09:39:28;;;;;;;;;;;20.00;99.90;;;18.92;76.66;95237.88;10317873;28;2047;-82
2021/08/05 09:44:31;;;;;;;;;;;19.60;99.90;;;20.43;71.62;95226.41;10307480;28;2650;-83
2021/08/05 09:49:34;;;;;;;;;;;20.30;99.90;;;20.98;65.52;95224.69;10324002;28;1954;-81
2021/08/05 09:54:37;;;;;;;;;;;21.10;99.90;;;20.96;68.08;95224.28;10326260;28;2409;-81
2021/08/05 09:59:41;;;;;;;;;;;21.50;99.90;;;21.15;62.83;95218.09;10325108;28;2026;-83
2021/08/05 10:04:48;;;;;;;;;;;21.70;99.90;;;20.35;67.21;95218.38;10314747;28;2510;-83
2021/08/05 10:09:51;;;;;;;;;;;21.30;99.90;;;20.18;66.05;95225.75;10315324;28;2466;-82
2021/08/05 10:14:54;;;;;;;;;;;20.90;99.90;;;19.90;66.69;95214.81;10301585;28;2566;-83
2021/08/05 10:19:56;;;;;;;;;;;20.70;99.90;;;19.88;66.22;95203.47;10308700;28;2389;-80
2021/08/05 10:24:59;;;;;;;;;;;20.70;99.90;;;19.12;67.32;95201.56;10314090;28;3008;-81
2021/08/05 10:30:02;;;;;;;;;;;20.30;99.90;;;19.20;70.64;95208.00;10314798;28;2492;-83
2021/08/05 10:35:06;;;;;;;;;;;19.90;99.90;;;18.40;76.17;95205.78;10309244;28;2432;-83
2021/08/05 10:40:09;;;;;;;;;;;19.60;99.90;;;17.68;79.13;95205.94;10302827;28;2730;-82
2021/08/05 10:45:11;;;;;;;;;;;19.00;99.90;;;17.73;80.88;95208.47;10325766;28;2260;-81
2021/08/05 10:50:14;;;;;;;;;;;18.70;99.90;;;17.95;80.94;95204.63;10316495;28;1950;-82
2021/08/05 10:55:17;;;;;;;;;;;18.80;99.90;;;18.35;78.28;95207.59;10318504;28;2123;-83
2021/08/05 11:00:20;;;;;;;;;;;19.10;99.90;;;18.97;75.87;95199.53;10304588;28;2182;-83
2021/08/05 11:05:23;;;;;;;;;;;19.50;99.90;;;19.55;73.22;95192.75;10322198;28;2436;-80
2021/08/05 11:10:25;;;;;;;;;;;20.00;99.90;;;20.12;72.02;95190.88;10291472;28;2511;-80
2021/08/05 11:15:30;;;;;;;;;;;20.70;99.90;;;20.95;66.29;95186.38;10289721;28;2486;-80
2021/08/05 11:20:32;;;;;;;;;;;21.90;99.90;;;20.42;67.68;95178.44;10289747;28;2126;-82
2021/08/05 11:25:35;;;;;;;;;;;21.60;99.90;;;19.75;69.60;95179.31;10288096;28;2503;-80
2021/08/05 11:30:38;;;;;;;;;;;21.10;99.90;;;19.03;75.01;95182.63;10306662;28;2377;-81
2021/08/05 11:35:40;;;;;;;;;;;20.40;99.90;;;19.29;73.65;95176.78;10286535;28;2283;-81
2021/08/05 11:40:43;;;;;;;;;;;20.20;99.90;;;20.66;68.35;95168.50;10301731;28;2304;-81
2021/08/05 11:45:46;;;;;;;;;;;21.10;99.90;;;21.95;61.05;95172.16;10282466;28;2296;-82
2021/08/05 11:50:49;;;;;;;;;;;22.10;99.90;;;22.27;60.99;95162.69;10287108;28;2246;-80
2021/08/05 11:55:52;;;;;;;;;;;22.50;99.90;;;22.91;57.70;95147.38;10292958;28;2226;-82
2021/08/05 12:00:55;;;;;;;;;;;23.10;99.90;;;23.08;57.90;95134.28;10295221;28;2472;-82
2021/08/05 12:05:58;;;;;;;;;;;23.60;99.90;;;23.09;56.19;95130.38;10301572;28;2438;-83
2021/08/05 12:11:01;;;;;;;;;;;24.00;99.90;;;22.36;56.47;95137.78;10282606;28;2417;-84
2021/08/05 12:16:03;;;;;;;;;;;23.70;99.90;;;21.94;59.64;95127.59;10286595;28;2283;-82
2021/08/05 12:21:07;;;;;;;;;;;23.10;99.90;;;21.15;62.56;95124.38;10289860;28;2050;-81
2021/08/05 12:26:13;;;;;;;;;;;22.60;99.90;;;21.61;60.26;95116.41;10278833;28;2226;-81
2021/08/05 12:31:17;;;;;;;;;;;22.60;99.90;;;21.73;59.87;95116.25;10300642;28;2262;-83
2021/08/05 12:36:20;;;;;;;;;;;22.80;99.90;;;22.04;58.41;95109.81;10290038;28;2278;-83
2021/08/05 12:41:23;;;;;;;;;;;23.00;99.90;;;22.75;55.74;95093.84;10298171;28;2382;-82
2021/08/05 12:46:26;;;;;;;;;;;23.40;99.90;;;22.67;54.86;95087.47;10297477;28;2408;-84
2021/08/05 12:51:29;;;;;;;;;;;23.50;99.90;;;22.90;54.05;95081.94;10294413;28;2273;-83
2021/08/05 12:56:31;;;;;;;;;;;23.30;99.90;;;23.30;53.37;95078.59;10302039;28;2419;-82
2021/08/05 13:01:34;;;;;;;;;;;24.00;99.90;;;22.54;51.50;95078.66;10314936;28;2345;-79
2021/08/05 13:06:37;;;;;;;;;;;23.60;99.90;;;23.23;52.70;95083.22;10309975;28;2405;-82
2021/08/05 13:11:40;;;;;;;;;;;23.80;99.90;;;22.80;52.49;95071.59;10290136;28;2377;-82
2021/08/05 13:16:43;;;;;;;;;;;23.70;99.90;;;22.21;52.99;95078.47;10284988;28;2322;-81
2021/08/05 13:21:45;;;;;;;;;;;23.30;99.90;;;21.88;54.90;95079.78;10291920;28;2341;-81
2021/08/05 13:26:48;;;;;;;;;;;22.80;99.90;;;21.75;55.87;95070.16;10290920;28;1969;-78
2021/08/05 13:31:51;;;;;;;;;;;22.60;99.90;;;22.62;51.70;95068.59;10321534;28;2347;-80
2021/08/05 13:36:54;;;;;;;;;;;22.90;99.90;;;23.16;50.71;95059.25;10322368;28;2247;-78
2021/08/05 13:41:57;;;;;;;;;;;23.30;99.90;;;23.39;47.51;95048.16;10312878;28;2464;-81
2021/08/05 13:46:59;;;;;;;;;;;23.70;99.90;;;23.67;47.79;95048.53;10300513;28;2329;-80
2021/08/05 13:52:02;;;;;;;;;;;23.90;99.90;;;24.21;45.36;95047.09;10306457;28;2253;-80
2021/08/05 13:57:05;;;;;;;;;;;24.60;99.90;;;23.97;44.44;95036.66;10314762;28;2373;-81
2021/08/05 14:02:08;;;;;;;;;;;24.80;99.90;;;23.57;45.91;95029.97;10287295;28;2236;-82
2021/08/05 14:07:11;;;;;;;;;;;24.70;99.90;;;22.55;47.65;95022.72;10287582;28;2430;-82
2021/08/05 14:12:14;;;;;;;;;;;23.90;99.90;;;22.65;45.84;95024.81;10284218;28;2285;-83
2021/08/05 14:17:17;;;;;;;;;;;23.50;99.90;;;22.40;47.35;95020.91;10283720;28;2381;-82
2021/08/05 14:22:20;;;;;;;;;;;23.40;99.90;;;22.12;48.94;95010.28;10288213;28;2269;-83
2021/08/05 14:27:29;;;;;;;;;;;23.20;99.90;;;21.70;49.77;95013.84;10277724;28;2329;-82
2021/08/05 14:32:32;;;;;;;;;;;22.60;99.90;;;22.29;49.04;95003.53;10286045;28;2141;-83
2021/08/05 14:37:35;;;;;;;;;;;22.90;99.90;;;22.70;47.67;94998.25;10283788;28;1997;-80
2021/08/05 14:42:38;;;;;;;;;;;23.30;99.90;;;23.01;47.86;94992.44;10282054;28;2267;-80
2021/08/05 14:47:41;;;;;;;;;;;23.60;99.90;;;23.10;48.08;95001.19;10293282;28;2346;-79
2021/08/05 14:52:44;;;;;;;;;;;23.70;99.90;;;23.62;45.09;95004.97;10281724;28;2299;-80
2021/08/05 14:57:47;;;;;;;;;;;24.20;99.90;;;23.94;42.99;95002.53;10285092;28;2235;-79
2021/08/05 15:02:49;;;;;;;;;;;24.70;99.90;;;23.66;45.48;94999.50;10275300;28;2264;-83
2021/08/05 15:07:53;;;;;;;;;;;24.60;99.90;;;23.52;46.88;95005.59;10302979;28;2392;-81
2021/08/05 15:12:56;;;;;;;;;;;24.40;99.90;;;23.01;47.98;94986.97;10319779;28;2195;-81
2021/08/05 15:17:59;;;;;;;;;;;24.10;99.90;;;22.85;47.78;94994.56;10288171;28;2280;-79
2021/08/05 15:23:02;;;;;;;;;;;23.80;99.90;;;23.28;46.90;94990.44;10292349;28;2264;-81
2021/08/05 15:28:05;;;;;;;;;;;23.80;99.90;;;23.08;47.29;94986.28;10291387;28;2315;-79
2021/08/05 15:33:08;;;;;;;;;;;24.00;99.90;;;23.44;46.39;94976.53;10299118;28;2392;-80
2021/08/05 15:38:10;;;;;;;;;;;24.00;99.90;;;23.31;46.06;94977.94;10299269;28;2385;-80
2021/08/05 15:43:13;;;;;;;;;;;24.00;99.90;;;23.10;47.45;94982.00;10294771;28;2477;-79
2021/08/05 15:48:16;;;;;;;;;;;23.90;99.90;;;23.64;46.11;94969.69;10303814;28;2426;-79
2021/08/05 15:53:18;;;;;;;;;;;24.10;99.90;;;24.06;45.61;94975.97;10310187;28;2268;-79
2021/08/05 15:58:21;;;;;;;;;;;24.50;99.90;;;23.52;46.76;94977.38;10306831;28;2387;-80
2021/08/05 16:03:24;;;;;;;;;;;24.50;99.90;;;22.53;50.37;94988.66;10301552;28;2265;-79
2021/08/05 16:08:27;;;;;;;;;;;24.00;99.90;;;22.32;50.64;94975.41;10294389;28;2454;-80
2021/08/05 16:13:34;;;;;;;;;;;23.50;99.90;;;21.78;52.07;94981.94;10284008;28;2344;-80
2021/08/05 16:18:37;;;;;;;;;;;23.00;99.90;;;21.40;52.89;94972.66;10290651;28;2359;-83
2021/08/05 16:23:39;;;;;;;;;;;22.60;99.90;;;21.26;53.30;94977.81;10294728;28;2310;-83
2021/08/05 16:28:42;;;;;;;;;;;22.40;99.90;;;20.98;54.71;94984.28;10318075;28;2508;-82
2021/08/05 16:33:45;;;;;;;;;;;22.10;99.90;;;20.77;56.24;94978.38;10329358;28;2385;-82
2021/08/05 16:38:49;;;;;;;;;;;21.90;99.90;;;20.41;59.04;94985.75;10302774;28;2067;-83
2021/08/05 16:43:52;;;;;;;;;;;21.60;99.90;;;19.78;64.44;94999.41;10301755;28;2298;-82
2021/08/05 16:48:54;;;;;;;;;;;21.20;99.90;;;18.53;75.36;95027.78;10299012;28;2396;-82
2021/08/05 16:53:57;;;;;;;;;;;20.30;99.90;;;16.97;76.71;95040.31;10311792;28;2314;-82
2021/08/05 16:59:00;;;;;;;;;;;19.00;99.90;;;15.97;89.39;95052.72;10289245;28;1949;-83
2021/08/05 17:04:03;;;;;;;;;;;17.70;99.90;;;15.34;94.13;95057.00;10299818;28;2330;-83
2021/08/05 17:09:06;;;;;;;;;;;16.80;99.90;;;14.73;99.74;95043.47;10307574;28;2440;-81
2021/08/05 17:14:09;;;;;;;;;;;16.10;99.90;;;14.51;100.00;95011.97;10311159;28;2357;-81
2021/08/05 17:19:11;;;;;;;;;;;15.70;99.90;;;14.72;100.00;95003.22;10289437;28;2385;-82
2021/08/05 17:24:14;;;;;;;;;;;15.50;99.90;;;15.16;100.00;95012.09;10301473;28;2333;-83
2021/08/05 17:29:17;;;;;;;;;;;15.80;99.90;;;15.46;100.00;95005.69;10322292;28;2212;-82
2021/08/05 17:34:23;;;;;;;;;;;16.10;99.90;;;15.62;100.00;95020.31;10307851;28;2425;-82
2021/08/05 17:39:26;;;;;;;;;;;16.30;99.90;;;15.65;98.55;95022.38;10300595;28;2371;-83
2021/08/05 17:44:29;;;;;;;;;;;16.40;99.90;;;15.62;100.00;95025.72;10307081;28;2235;-81
2021/08/05 17:49:31;;;;;;;;;;;16.40;99.90;;;15.72;97.70;95027.31;10279154;28;2511;-80
2021/08/05 17:54:38;;;;;;;;;;;16.50;99.90;;;15.62;100.00;95033.84;10303499;28;2287;-82
2021/08/05 17:59:41;;;;;;;;;;;16.50;99.90;;;15.55;100.00;95030.81;10287568;28;2324;-83
2021/08/05 18:04:44;;;;;;;;;;;16.50;99.90;;;15.54;100.00;95031.94;10319096;28;2079;-81
2021/08/05 18:09:47;;;;;;;;;;;16.50;99.90;;;15.42;97.46;95029.09;10287858;28;2386;-83
2021/08/05 18:14:49;;;;;;;;;;;16.50;99.90;;;15.31;97.96;95042.16;10297741;28;2252;-83
2021/08/05 18:19:52;;;;;;;;;;;16.40;99.90;;;15.17;100.00;95032.66;10316784;28;2305;-84
2021/08/05 18:24:55;;;;;;;;;;;16.30;99.90;;;14.96;100.00;95037.91;10306033;28;2249;-86
2021/08/05 18:29:58;;;;;;;;;;;16.20;99.90;;;14.83;100.00;95053.19;10296129;28;2115;-84
2021/08/05 18:35:03;;;;;;;;;;;16.00;99.90;;;14.69;100.00;95057.94;10308361;28;2367;-85
2021/08/05 18:40:06;;;;;;;;;;;15.90;99.90;;;14.55;100.00;95061.59;10288065;28;2294;-84
2021/08/05 18:45:09;;;;;;;;;;;15.80;99.90;;;14.43;100.00;95055.97;10294015;28;2338;-85
2021/08/05 18:50:12;;;;;;;;;;;15.60;99.90;;;14.34;100.00;95063.25;10291367;28;2491;-84
2021/08/05 18:55:15;;;;;;;;;;;15.50;99.90;;;14.27;100.00;95077.25;10295968;28;2408;-82
2021/08/05 19:00:19;;;;;;;;;;;15.50;99.90;;;14.24;100.00;95075.16;10288226;28;2293;-82
2021/08/05 19:05:22;;;;;;;;;;;15.40;99.90;;;14.17;100.00;95074.81;10289888;28;1278;-84
2021/08/05 19:10:25;;;;;;;;;;;15.30;99.90;;;14.15;100.00;95073.53;10285522;28;1886;-83
2021/08/05 19:15:28;;;;;;;;;;;15.30;99.90;;;14.21;100.00;95061.47;10296941;28;1356;-82
2021/08/05 19:20:31;;;;;;;;;;;15.30;99.90;;;14.29;100.00;95063.41;10285050;28;1406;-80
2021/08/05 19:25:34;;;;;;;;;;;15.30;99.90;;;14.25;100.00;95071.38;10282543;28;1809;-79
2021/08/05 19:30:36;;;;;;;;;;;15.30;99.90;;;14.21;100.00;95069.59;10291599;28;1999;-79
2021/08/05 19:35:39;;;;;;;;;;;15.30;99.90;;;14.22;100.00;95065.78;10317991;28;1239;-78
2021/08/05 19:40:42;;;;;;;;;;;15.30;99.90;;;14.16;100.00;95072.44;10288018;28;1493;-80
2021/08/05 19:45:45;;;;;;;;;;;15.20;99.90;;;14.13;100.00;95070.38;10287252;28;1650;-80
2021/08/05 19:50:48;;;;;;;;;;;15.20;99.90;;;13.96;100.00;95071.88;10283186;28;1922;-79
2021/08/05 19:55:52;;;;;;;;;;;15.20;99.90;;;13.90;100.00;95073.13;10274773;28;1567;-81
2021/08/05 20:00:55;;;;;;;;;;;15.00;99.90;;;13.91;100.00;95068.53;10279442;28;1286;-81
2021/08/05 20:05:58;;;;;;;;;;;15.00;99.90;;;13.92;100.00;95073.59;10284724;28;2453;-80
2021/08/05 20:11:01;;;;;;;;;;;15.00;99.90;;;13.80;100.00;95070.69;10293613;28;1919;-81
2021/08/05 20:16:04;;;;;;;;;;;15.00;99.90;;;13.79;100.00;95069.09;10277206;28;1557;-79
2021/08/05 20:21:07;;;;;;;;;;;14.90;99.90;;;13.79;100.00;95078.00;10286735;28;1391;-80
2021/08/05 20:26:10;;;;;;;;;;;14.90;99.90;;;13.89;100.00;95076.94;10284723;28;1596;-81
2021/08/05 20:31:13;;;;;;;;;;;14.90;99.90;;;13.84;100.00;95074.38;10290568;28;1902;-80
2021/08/05 20:36:16;;;;;;;;;;;14.90;99.90;;;13.91;100.00;95077.41;10279102;28;1568;-78
2021/08/05 20:41:18;;;;;;;;;;;14.90;99.90;;;13.96;100.00;95079.19;10283610;28;1541;-80
2021/08/05 20:46:21;;;;;;;;;;;15.00;99.90;;;13.94;100.00;95084.91;10287195;28;1414;-81
2021/08/05 20:51:24;;;;;;;;;;;15.00;99.90;;;14.07;100.00;95084.00;10276843;28;1907;-80
2021/08/05 20:56:27;;;;;;;;;;;15.00;99.90;;;14.11;100.00;95078.75;10290192;28;2350;-82
2021/08/05 21:01:30;;;;;;;;;;;15.10;99.90;;;14.19;100.00;95078.03;10287279;28;2310;-81
2021/08/05 21:06:36;;;;;;;;;;;15.10;99.90;;;14.28;100.00;95080.75;10292216;28;2445;-81
2021/08/05 21:11:39;;;;;;;;;;;15.20;99.90;;;14.37;100.00;95084.25;10295346;28;2304;-81
2021/08/05 21:16:42;;;;;;;;;;;15.30;99.90;;;14.39;100.00;95079.34;10306799;28;2318;-81
2021/08/05 21:21:45;;;;;;;;;;;15.30;99.90;;;14.44;100.00;95084.63;10289380;28;2369;-82
2021/08/05 21:26:49;;;;;;;;;;;15.40;99.90;;;14.50;100.00;95085.28;10285851;28;2480;-80
2021/08/05 21:31:52;;;;;;;;;;;15.40;99.90;;;14.56;100.00;95075.91;10293550;28;2349;-79
2021/08/05 21:36:55;;;;;;;;;;;15.50;99.90;;;14.62;100.00;95071.13;10289532;28;2340;-82
2021/08/05 21:41:58;;;;;;;;;;;15.60;99.90;;;14.71;100.00;95067.34;10298307;28;2179;-80
2021/08/05 21:47:01;;;;;;;;;;;15.60;99.90;;;14.75;100.00;95075.63;10285833;28;2528;-79
2021/08/05 21:52:04;;;;;;;;;;;15.70;99.90;;;14.71;100.00;95069.25;10288903;28;2269;-81
2021/08/05 21:57:07;;;;;;;;;;;15.70;99.90;;;14.68;100.00;95067.16;10304271;28;2671;-80
2021/08/05 22:02:10;;;;;;;;;;;15.70;99.90;;;14.68;100.00;95072.59;10295458;28;2319;-81
2021/08/05 22:07:13;;;;;;;;;;;15.70;99.90;;;14.74;100.00;95065.91;10289431;28;2434;-81
2021/08/05 22:12:17;;;;;;;;;;;15.70;99.90;;;14.70;100.00;95054.94;10288395;28;2305;-81
2021/08/05 22:17:20;;;;;;;;;;;15.70;99.90;;;14.79;100.00;95058.44;10310939;28;2301;-81
2021/08/05 22:22:23;;;;;;;;;;;15.70;99.90;;;14.73;100.00;95053.50;10297102;28;2491;-81
2021/08/05 22:27:25;;;;;;;;;;;15.80;99.90;;;14.73;100.00;95048.88;10299952;28;2351;-82
2021/08/05 22:32:28;;;;;;;;;;;15.70;99.90;;;14.77;100.00;95043.66;10300301;28;2321;-80
2021/08/05 22:37:33;;;;;;;;;;;15.70;99.90;;;14.75;100.00;95035.03;10311044;28;2243;-83
2021/08/05 22:42:35;;;;;;;;;;;15.70;99.90;;;14.79;100.00;95041.41;10299883;28;1609;-79
2021/08/05 22:47:45;;;;;;;;;;;15.80;99.90;;;14.76;100.00;95042.03;10315098;28;2457;-81
2021/08/05 22:52:48;;;;;;;;;;;15.70;99.90;;;14.73;100.00;95032.66;10297947;28;2261;-79
2021/08/05 22:57:50;;;;;;;;;;;15.70;99.90;;;14.71;100.00;95037.59;10288223;28;2344;-81
2021/08/05 23:02:55;;;;;;;;;;;15.70;99.90;;;14.74;100.00;95036.16;10302200;28;2317;-81